createdAt,value
2017-08-14T00:01:16.409Z,82.80
2017-08-14T00:03:42.980Z,82.80
2017-08-14T00:06:09.262Z,82.30
2017-08-14T00:08:35.644Z,82.40
2017-08-14T00:11:01.866Z,82.20
2017-08-14T00:13:28.056Z,81.70
2017-08-14T00:15:54.533Z,82.10
2017-08-14T00:18:20.705Z,81.90
2017-08-14T00:20:46.837Z,81.60
2017-08-14T00:23:20.141Z,82.20
2017-08-14T00:25:46.999Z,83.20
2017-08-14T00:28:14.001Z,83.60
2017-08-14T00:30:40.478Z,83.50
2017-08-14T00:33:06.764Z,83.90
2017-08-14T00:35:32.917Z,85.20
2017-08-14T00:37:59.152Z,86.50
2017-08-14T00:40:25.468Z,89.20
2017-08-14T00:42:51.668Z,89.30
2017-08-14T00:45:17.925Z,88.90
2017-08-14T00:47:44.049Z,88.80
2017-08-14T00:50:10.203Z,87.30
2017-08-14T00:52:36.638Z,86.20
2017-08-14T00:55:03.115Z,86.10
2017-08-14T00:57:29.353Z,85.80
2017-08-14T00:59:55.608Z,85.30
2017-08-14T01:02:21.733Z,85.70
2017-08-14T01:04:47.923Z,86.00
2017-08-14T01:07:14.985Z,86.10
2017-08-14T01:09:41.862Z,86.00
2017-08-14T01:12:08.810Z,86.10
2017-08-14T01:14:35.146Z,86.00
2017-08-14T01:17:01.311Z,86.20
2017-08-14T01:19:27.484Z,86.10
2017-08-14T01:21:54.649Z,86.90
2017-08-14T01:24:21.638Z,87.10
2017-08-14T01:26:48.520Z,87.30
2017-08-14T01:29:15.493Z,88.80
2017-08-14T01:31:42.436Z,88.30
2017-08-14T01:34:09.386Z,88.80
2017-08-14T01:36:35.725Z,88.60
2017-08-14T01:39:02.842Z,88.90
2017-08-14T01:41:29.061Z,88.80
2017-08-14T01:43:55.439Z,87.80
2017-08-14T01:46:22.023Z,90.10
2017-08-14T01:48:48.351Z,88.60
2017-08-14T01:51:14.604Z,89.60
2017-08-14T01:53:40.703Z,89.10
2017-08-14T01:56:07.122Z,88.70
2017-08-14T01:58:33.407Z,89.10
2017-08-14T02:00:59.603Z,88.90
2017-08-14T02:03:25.727Z,87.80
2017-08-14T02:05:52.113Z,86.90
2017-08-14T02:08:18.264Z,86.10
2017-08-14T02:10:44.415Z,87.00
2017-08-14T02:13:10.771Z,87.20
2017-08-14T02:15:37.729Z,87.50
2017-08-14T02:18:03.973Z,87.50
2017-08-14T02:20:31.114Z,87.50
2017-08-14T02:22:58.025Z,88.20
2017-08-14T02:25:24.122Z,88.20
2017-08-14T02:27:50.505Z,86.80
2017-08-14T02:30:16.706Z,86.30
2017-08-14T02:32:42.939Z,86.30
2017-08-14T02:35:09.175Z,87.20
2017-08-14T02:37:35.395Z,86.60
2017-08-14T02:40:01.519Z,86.40
2017-08-14T02:42:27.758Z,85.50
2017-08-14T02:44:53.957Z,86.20
2017-08-14T02:47:20.095Z,85.40
2017-08-14T02:49:46.337Z,85.70
2017-08-14T02:52:12.539Z,85.40
2017-08-14T02:54:38.683Z,85.00
2017-08-14T02:57:05.395Z,84.10
2017-08-14T02:59:31.601Z,83.90
2017-08-14T03:01:57.769Z,83.50
2017-08-14T03:04:24.136Z,82.40
2017-08-14T03:06:50.338Z,82.10
2017-08-14T03:09:16.459Z,82.10
2017-08-14T03:11:42.821Z,81.80
2017-08-14T03:14:09.106Z,81.80
2017-08-14T03:16:35.239Z,81.60
2017-08-14T03:19:01.609Z,81.50
2017-08-14T03:21:27.798Z,81.80
2017-08-14T03:23:53.897Z,81.60
2017-08-14T03:26:20.143Z,80.70
2017-08-14T03:28:47.023Z,81.60
2017-08-14T03:31:13.207Z,81.50
2017-08-14T03:33:39.469Z,81.40
2017-08-14T03:36:06.325Z,82.50
2017-08-14T03:38:32.526Z,82.30
2017-08-14T03:40:58.912Z,82.40
2017-08-14T03:43:25.087Z,82.10
2017-08-14T03:45:51.938Z,81.80
2017-08-14T03:48:18.177Z,81.80
2017-08-14T03:50:45.172Z,81.20
2017-08-14T03:53:18.354Z,81.10
2017-08-14T03:55:44.516Z,80.70
2017-08-14T03:58:10.925Z,80.70
2017-08-14T04:00:37.199Z,79.60
2017-08-14T04:03:04.137Z,80.30
2017-08-14T04:05:30.246Z,80.30
2017-08-14T04:07:56.560Z,80.20
2017-08-14T04:10:22.723Z,80.60
2017-08-14T04:12:48.830Z,80.50
2017-08-14T04:15:15.103Z,80.40
2017-08-14T04:17:41.279Z,80.30
2017-08-14T04:20:07.429Z,80.20
2017-08-14T04:22:33.788Z,79.70
2017-08-14T04:25:00.774Z,79.40
2017-08-14T04:27:26.865Z,79.20
2017-08-14T04:29:53.332Z,78.80
2017-08-14T04:32:19.481Z,78.60
2017-08-14T04:34:45.647Z,78.30
2017-08-14T04:37:12.034Z,77.90
2017-08-14T04:39:38.892Z,78.10
2017-08-14T04:42:05.032Z,78.00
2017-08-14T04:44:32.193Z,76.80
2017-08-14T04:46:58.385Z,76.70
2017-08-14T04:49:25.241Z,76.50
2017-08-14T04:51:52.227Z,76.60
2017-08-14T04:54:19.144Z,76.70
2017-08-14T04:56:45.363Z,76.70
2017-08-14T04:59:12.133Z,76.50
2017-08-14T05:01:39.049Z,76.70
2017-08-14T05:04:05.989Z,77.40
2017-08-14T05:06:32.232Z,77.30
2017-08-14T05:08:58.433Z,77.10
2017-08-14T05:11:24.555Z,76.40
2017-08-14T05:13:50.852Z,76.30
2017-08-14T05:16:17.103Z,74.80
2017-08-14T05:18:43.989Z,73.90
2017-08-14T05:21:10.939Z,71.40
2017-08-14T05:23:37.865Z,70.20
2017-08-14T05:26:03.960Z,70.20
2017-08-14T05:28:31.034Z,69.80
2017-08-14T05:30:57.947Z,70.00
2017-08-14T05:33:24.824Z,69.50
2017-08-14T05:35:51.821Z,69.20
2017-08-14T05:38:18.713Z,66.90
2017-08-14T05:40:44.815Z,67.00
2017-08-14T05:43:11.809Z,67.20
2017-08-14T05:45:37.973Z,67.10
2017-08-14T05:48:04.117Z,66.90
2017-08-14T05:50:31.207Z,66.40
2017-08-14T05:52:57.441Z,66.40
2017-08-14T05:55:23.625Z,66.20
2017-08-14T05:57:50.707Z,66.60
2017-08-14T06:00:17.160Z,66.60
2017-08-14T06:02:43.399Z,66.30
2017-08-14T06:05:09.802Z,66.80
2017-08-14T06:07:35.992Z,65.90
2017-08-14T06:10:02.169Z,66.30
2017-08-14T06:12:28.486Z,66.50
2017-08-14T06:14:54.689Z,63.10
2017-08-14T06:17:20.850Z,61.90
2017-08-14T06:19:47.269Z,59.90
2017-08-14T06:22:13.386Z,58.50
2017-08-14T06:24:39.523Z,54.70
2017-08-14T06:27:05.929Z,52.70
2017-08-14T06:29:32.789Z,50.10
2017-08-14T06:31:59.020Z,50.10
2017-08-14T06:34:25.449Z,50.00
2017-08-14T06:36:51.562Z,49.20
2017-08-14T06:39:18.423Z,47.90
2017-08-14T06:41:44.811Z,47.80
2017-08-14T06:44:11.711Z,47.40
2017-08-14T06:46:37.907Z,47.30
2017-08-14T06:49:04.890Z,45.00
2017-08-14T06:51:31.827Z,44.40
2017-08-14T06:53:58.027Z,44.40
2017-08-14T06:56:24.299Z,44.60
2017-08-14T06:58:50.457Z,44.40
2017-08-14T07:01:16.694Z,45.40
2017-08-14T07:03:42.895Z,42.80
2017-08-14T07:06:09.067Z,45.00
2017-08-14T07:08:35.436Z,42.20
2017-08-14T07:11:02.504Z,42.80
2017-08-14T07:13:28.659Z,42.80
2017-08-14T07:15:54.796Z,43.30
2017-08-14T07:18:20.961Z,41.60
2017-08-14T07:20:47.958Z,40.90
2017-08-14T07:23:14.110Z,41.00
2017-08-14T07:25:40.473Z,39.40
2017-08-14T07:28:07.450Z,36.50
2017-08-14T07:30:33.614Z,36.50
2017-08-14T07:32:59.994Z,35.90
2017-08-14T07:35:26.262Z,36.20
2017-08-14T07:37:52.336Z,38.10
2017-08-14T07:40:18.606Z,39.30
2017-08-14T07:42:49.834Z,37.10
2017-08-14T07:45:16.069Z,39.00
2017-08-14T07:47:42.274Z,39.20
2017-08-14T07:50:08.445Z,38.50
2017-08-14T07:52:34.577Z,38.00
2017-08-14T07:55:00.831Z,39.00
2017-08-14T07:57:27.021Z,37.10
2017-08-14T07:59:54.077Z,36.00
2017-08-14T08:02:20.224Z,34.50
2017-08-14T08:04:46.411Z,34.20
2017-08-14T08:07:12.559Z,34.20
2017-08-14T08:09:38.954Z,32.60
2017-08-14T08:12:05.111Z,31.90
2017-08-14T08:14:31.223Z,32.70
2017-08-14T08:16:57.354Z,32.90
2017-08-14T08:19:23.651Z,34.90
2017-08-14T08:21:49.835Z,34.90
2017-08-14T08:24:15.980Z,32.30
2017-08-14T08:26:42.205Z,32.90
2017-08-14T08:29:08.430Z,33.10
2017-08-14T08:31:34.679Z,32.30
2017-08-14T08:34:00.783Z,32.40
2017-08-14T08:36:27.006Z,31.40
2017-08-14T08:38:53.242Z,30.20
2017-08-14T08:41:19.456Z,31.20
2017-08-14T08:43:45.666Z,31.50
2017-08-14T08:46:15.978Z,31.30
2017-08-14T08:48:42.238Z,32.20
2017-08-14T08:51:08.474Z,31.70
2017-08-14T08:53:35.605Z,30.80
2017-08-14T08:56:01.838Z,29.20
2017-08-14T08:58:28.494Z,29.70
2017-08-14T09:00:54.704Z,30.40
2017-08-14T09:03:20.833Z,31.10
2017-08-14T09:05:47.061Z,30.50
2017-08-14T09:08:13.397Z,29.30
2017-08-14T09:10:39.910Z,29.20
2017-08-14T09:13:06.076Z,29.00
2017-08-14T09:15:32.456Z,29.60
2017-08-14T09:17:58.820Z,31.40
2017-08-14T09:20:25.227Z,28.80
2017-08-14T09:22:51.486Z,28.60
2017-08-14T09:25:17.773Z,28.50
2017-08-14T09:27:43.952Z,27.20
2017-08-14T09:30:10.185Z,27.70
2017-08-14T09:32:36.304Z,27.70
2017-08-14T09:35:02.602Z,29.50
2017-08-14T09:37:29.014Z,30.60
2017-08-14T09:39:55.250Z,31.00
2017-08-14T09:42:21.389Z,34.00
2017-08-14T09:44:47.643Z,31.50
2017-08-14T09:47:20.869Z,31.00
2017-08-14T09:49:47.098Z,28.60
2017-08-14T09:52:13.309Z,29.60
2017-08-14T09:54:39.506Z,30.60
2017-08-14T09:57:06.270Z,33.30
2017-08-14T09:59:32.549Z,34.30
2017-08-14T10:01:58.783Z,34.10
2017-08-14T10:04:24.989Z,32.40
2017-08-14T10:06:51.137Z,30.60
2017-08-14T10:09:17.390Z,29.40
2017-08-14T10:11:44.219Z,30.20
2017-08-14T10:14:11.983Z,30.10
2017-08-14T10:16:38.195Z,30.50
2017-08-14T10:19:04.659Z,32.20
2017-08-14T10:21:31.103Z,31.90
2017-08-14T10:23:58.317Z,31.10
2017-08-14T10:26:24.830Z,32.10
2017-08-14T10:28:51.036Z,34.10
2017-08-14T10:31:17.282Z,35.30
2017-08-14T10:33:43.558Z,37.10
2017-08-14T10:36:09.753Z,35.50
2017-08-14T10:38:35.898Z,31.90
2017-08-14T10:41:02.245Z,33.60
2017-08-14T10:43:28.458Z,32.20
2017-08-14T10:45:54.674Z,32.90
2017-08-14T10:48:20.921Z,37.10
2017-08-14T10:50:47.090Z,37.50
2017-08-14T10:53:13.467Z,35.40
2017-08-14T10:55:39.867Z,33.50
2017-08-14T10:58:06.030Z,33.60
2017-08-14T11:00:32.243Z,32.50
2017-08-14T11:02:58.552Z,30.50
2017-08-14T11:05:24.715Z,31.30
2017-08-14T11:07:50.888Z,32.10
2017-08-14T11:10:17.276Z,33.80
2017-08-14T11:12:44.224Z,31.90
2017-08-14T11:15:10.442Z,31.80
2017-08-14T11:17:36.706Z,32.60
2017-08-14T11:20:02.889Z,33.30
2017-08-14T11:22:29.027Z,33.10
2017-08-14T11:24:55.359Z,30.40
2017-08-14T11:27:22.596Z,29.20
2017-08-14T11:29:52.226Z,29.40
2017-08-14T11:32:18.859Z,30.10
2017-08-14T11:34:45.696Z,29.70
2017-08-14T11:37:12.327Z,29.00
2017-08-14T11:39:39.206Z,27.70
2017-08-14T11:42:05.479Z,27.10
2017-08-14T11:44:31.657Z,27.30
2017-08-14T11:46:58.000Z,28.50
2017-08-14T11:49:24.179Z,28.00
2017-08-14T11:51:50.474Z,27.90
2017-08-14T11:54:16.962Z,27.20
2017-08-14T11:56:43.174Z,28.50
2017-08-14T11:59:09.302Z,27.40
2017-08-14T12:01:35.671Z,27.30
2017-08-14T12:04:01.871Z,28.50
2017-08-14T12:06:28.041Z,27.00
2017-08-14T12:08:54.271Z,28.10
2017-08-14T12:11:20.402Z,30.60
2017-08-14T12:13:46.531Z,31.40
2017-08-14T12:16:12.899Z,30.70
2017-08-14T12:18:39.077Z,31.60
2017-08-14T12:21:05.252Z,30.60
2017-08-14T12:23:31.507Z,32.40
2017-08-14T12:25:57.680Z,33.90
2017-08-14T12:28:23.801Z,32.50
2017-08-14T12:30:50.060Z,29.70
2017-08-14T12:33:16.254Z,29.60
2017-08-14T12:35:42.469Z,30.10
2017-08-14T12:38:08.814Z,31.10
2017-08-14T12:40:34.999Z,31.70
2017-08-14T12:43:01.182Z,32.80
2017-08-14T12:45:28.281Z,32.30
2017-08-14T12:47:54.466Z,32.30
2017-08-14T12:50:20.674Z,32.20
2017-08-14T12:52:47.936Z,32.20
2017-08-14T12:55:14.323Z,31.10
2017-08-14T12:57:40.569Z,31.50
2017-08-14T13:00:07.180Z,31.40
2017-08-14T13:02:33.578Z,32.80
2017-08-14T13:05:00.277Z,32.80
2017-08-14T13:07:27.599Z,32.50
2017-08-14T13:09:54.117Z,30.50
2017-08-14T13:12:20.564Z,30.80
2017-08-14T13:14:47.122Z,33.10
2017-08-14T13:17:13.513Z,33.60
2017-08-14T13:19:39.812Z,34.90
2017-08-14T13:22:06.106Z,34.00
2017-08-14T13:24:32.421Z,32.50
2017-08-14T13:26:58.695Z,32.50
2017-08-14T13:29:24.973Z,30.70
2017-08-14T13:31:51.171Z,32.00
2017-08-14T13:34:17.285Z,32.10
2017-08-14T13:36:43.557Z,33.30
2017-08-14T13:39:09.769Z,33.30
2017-08-14T13:41:36.060Z,34.30
2017-08-14T13:44:02.363Z,33.70
2017-08-14T13:46:28.528Z,33.90
2017-08-14T13:48:54.747Z,34.10
2017-08-14T13:51:20.950Z,35.00
2017-08-14T13:53:47.117Z,35.50
2017-08-14T13:56:14.007Z,32.20
2017-08-14T13:58:40.201Z,32.20
2017-08-14T14:01:06.315Z,32.30
2017-08-14T14:03:32.480Z,30.90
2017-08-14T14:05:58.680Z,32.30
2017-08-14T14:08:24.785Z,34.40
2017-08-14T14:10:50.929Z,36.80
2017-08-14T14:13:17.081Z,37.60
2017-08-14T14:15:43.296Z,38.60
2017-08-14T14:18:09.530Z,39.80
2017-08-14T14:20:35.853Z,39.40
2017-08-14T14:23:02.195Z,38.20
2017-08-14T14:25:28.411Z,37.10
2017-08-14T14:27:54.729Z,36.10
2017-08-14T14:30:20.841Z,34.20
2017-08-14T14:32:46.948Z,33.90
2017-08-14T14:35:13.302Z,35.20
2017-08-14T14:37:39.450Z,33.80
2017-08-14T14:40:05.658Z,33.00
2017-08-14T14:42:31.836Z,34.70
2017-08-14T14:44:58.099Z,35.20
2017-08-14T14:47:24.251Z,35.20
2017-08-14T14:49:51.126Z,34.00
2017-08-14T14:52:17.296Z,34.00
2017-08-14T14:54:43.496Z,34.20
2017-08-14T14:57:09.732Z,32.80
2017-08-14T14:59:35.922Z,34.90
2017-08-14T15:02:02.149Z,35.90
2017-08-14T15:04:28.478Z,36.00
2017-08-14T15:06:55.441Z,36.80
2017-08-14T15:09:21.619Z,36.80
2017-08-14T15:11:48.266Z,38.30
2017-08-14T15:14:14.381Z,36.90
2017-08-14T15:16:40.538Z,36.40
2017-08-14T15:19:06.766Z,36.90
2017-08-14T15:21:33.075Z,36.70
2017-08-14T15:23:59.206Z,38.50
2017-08-14T15:26:26.168Z,37.00
2017-08-14T15:28:52.506Z,37.00
2017-08-14T15:31:18.701Z,37.50
2017-08-14T15:33:44.999Z,37.60
2017-08-14T15:36:11.206Z,38.60
2017-08-14T15:38:37.441Z,38.30
2017-08-14T15:41:03.657Z,39.10
2017-08-14T15:43:29.982Z,39.60
2017-08-14T15:45:56.114Z,40.10
2017-08-14T15:48:23.075Z,42.00
2017-08-14T15:50:49.241Z,42.00
2017-08-14T15:53:15.369Z,42.40
2017-08-14T15:55:42.592Z,42.00
2017-08-14T15:58:08.766Z,42.10
2017-08-14T16:00:35.218Z,41.70
2017-08-14T16:03:01.513Z,41.50
2017-08-14T16:05:27.636Z,41.50
2017-08-14T16:07:53.778Z,41.80
2017-08-14T16:10:19.969Z,41.90
2017-08-14T16:12:46.235Z,41.50
2017-08-14T16:15:12.328Z,42.00
2017-08-14T16:17:38.511Z,42.20
2017-08-14T16:20:04.715Z,42.40
2017-08-14T16:22:30.848Z,42.80
2017-08-14T16:24:57.246Z,42.80
2017-08-14T16:27:23.427Z,43.20
2017-08-14T16:29:49.638Z,43.40
2017-08-14T16:32:15.935Z,43.40
2017-08-14T16:34:42.207Z,44.10
2017-08-14T16:37:08.399Z,44.00
2017-08-14T16:39:34.721Z,43.80
2017-08-14T16:42:00.930Z,44.00
2017-08-14T16:44:27.097Z,43.80
2017-08-14T16:46:53.354Z,44.00
2017-08-14T16:49:19.551Z,44.40
2017-08-14T16:51:45.753Z,44.50
2017-08-14T16:54:11.947Z,44.60
2017-08-14T16:56:38.152Z,44.50
2017-08-14T16:59:05.114Z,45.10
2017-08-14T17:01:31.414Z,45.10
2017-08-14T17:03:57.536Z,45.10
2017-08-14T17:06:23.661Z,45.00
2017-08-14T17:08:56.930Z,45.00
2017-08-14T17:11:23.814Z,46.00
2017-08-14T17:13:50.841Z,45.70
2017-08-14T17:16:17.051Z,45.70
2017-08-14T17:18:43.194Z,46.00
2017-08-14T17:21:09.753Z,46.50
2017-08-14T17:23:35.974Z,47.10
2017-08-14T17:26:03.420Z,47.10
2017-08-14T17:28:29.667Z,47.30
2017-08-14T17:30:56.519Z,47.30
2017-08-14T17:33:22.714Z,47.70
2017-08-14T17:35:49.258Z,48.00
2017-08-14T17:38:15.445Z,48.20
2017-08-14T17:40:41.558Z,48.30
2017-08-14T17:43:07.732Z,48.60
2017-08-14T17:45:33.881Z,48.80
2017-08-14T17:48:00.098Z,49.30
2017-08-14T17:50:26.218Z,49.50
2017-08-14T17:52:52.357Z,49.70
2017-08-14T17:55:19.361Z,50.20
2017-08-14T17:57:45.459Z,50.20
2017-08-14T18:00:11.690Z,50.60
2017-08-14T18:02:37.885Z,50.80
2017-08-14T18:05:04.170Z,51.00
2017-08-14T18:07:30.467Z,51.00
2017-08-14T18:09:56.655Z,51.00
2017-08-14T18:12:22.824Z,50.80
2017-08-14T18:14:49.070Z,51.10
2017-08-14T18:17:15.215Z,51.40
2017-08-14T18:19:42.424Z,51.70
2017-08-14T18:22:08.678Z,51.90
2017-08-14T18:24:35.166Z,52.40
2017-08-14T18:27:01.415Z,52.80
2017-08-14T18:29:27.672Z,53.20
2017-08-14T18:31:53.928Z,53.60
2017-08-14T18:34:20.256Z,53.70
2017-08-14T18:36:46.551Z,54.10
2017-08-14T18:39:12.742Z,54.60
2017-08-14T18:41:39.025Z,54.60
2017-08-14T18:44:05.266Z,54.80
2017-08-14T18:46:31.639Z,55.10
2017-08-14T18:48:57.909Z,55.40
2017-08-14T18:51:24.237Z,55.50
2017-08-14T18:53:50.420Z,55.80
2017-08-14T18:56:16.627Z,56.20
2017-08-14T18:58:42.837Z,56.40
2017-08-14T19:01:09.075Z,56.60
2017-08-14T19:03:35.306Z,56.90
2017-08-14T19:06:01.780Z,57.30
2017-08-14T19:08:29.379Z,57.50
2017-08-14T19:10:54.137Z,57.90
2017-08-14T19:13:20.409Z,58.20
2017-08-14T19:15:46.709Z,58.40
2017-08-14T19:18:12.891Z,58.60
2017-08-14T19:20:39.246Z,59.10
2017-08-14T19:23:05.521Z,59.10
2017-08-14T19:25:32.538Z,59.60
2017-08-14T19:27:59.270Z,59.60
2017-08-14T19:30:25.609Z,60.00
2017-08-14T19:32:51.864Z,60.50
2017-08-14T19:35:18.035Z,60.80
2017-08-14T19:37:44.538Z,61.00
2017-08-14T19:40:10.735Z,61.50
2017-08-14T19:42:37.094Z,61.80
2017-08-14T19:45:03.970Z,62.50
2017-08-14T19:47:30.139Z,62.50
2017-08-14T19:49:56.386Z,62.80
2017-08-14T19:52:22.532Z,63.20
2017-08-14T19:54:48.810Z,63.60
2017-08-14T19:57:15.165Z,64.00
2017-08-14T19:59:41.332Z,64.40
2017-08-14T20:02:07.654Z,64.60
2017-08-14T20:04:34.215Z,64.90
2017-08-14T20:07:00.435Z,65.10
2017-08-14T20:09:26.791Z,65.50
2017-08-14T20:11:53.255Z,65.90
2017-08-14T20:14:20.160Z,66.30
2017-08-14T20:16:46.444Z,66.30
2017-08-14T20:19:12.818Z,66.70
2017-08-14T20:21:39.074Z,67.00
2017-08-14T20:24:11.093Z,67.60
2017-08-14T20:26:37.551Z,67.60
2017-08-14T20:29:03.812Z,68.20
2017-08-14T20:31:30.223Z,68.50
2017-08-14T20:33:57.397Z,69.10
2017-08-14T20:36:23.890Z,69.10
2017-08-14T20:38:50.237Z,69.30
2017-08-14T20:41:16.568Z,69.70
2017-08-14T20:43:42.892Z,70.00
2017-08-14T20:46:09.031Z,70.20
2017-08-14T20:48:36.331Z,71.00
2017-08-14T20:51:02.549Z,71.00
2017-08-14T20:53:28.728Z,71.30
2017-08-14T20:55:55.224Z,71.20
2017-08-14T20:58:21.475Z,71.50
2017-08-14T21:00:48.490Z,72.20
2017-08-14T21:03:14.741Z,72.20
2017-08-14T21:05:41.004Z,72.40
2017-08-14T21:08:07.997Z,73.10
2017-08-14T21:10:34.296Z,73.10
2017-08-14T21:13:01.257Z,73.30
2017-08-14T21:15:28.811Z,73.20
2017-08-14T21:17:55.434Z,73.20
2017-08-14T21:20:22.733Z,73.60
2017-08-14T21:22:49.057Z,73.60
2017-08-14T21:25:16.705Z,73.80
2017-08-14T21:27:43.382Z,73.80
2017-08-14T21:30:09.852Z,74.90
2017-08-14T21:32:37.330Z,74.60
2017-08-14T21:35:03.744Z,74.60
2017-08-14T21:37:30.139Z,75.10
2017-08-14T21:39:57.068Z,75.60
2017-08-14T21:42:23.732Z,75.80
2017-08-14T21:44:50.156Z,76.00
2017-08-14T21:47:17.108Z,76.10
2017-08-14T21:49:43.631Z,76.40
2017-08-14T21:52:09.890Z,76.50
2017-08-14T21:54:37.027Z,76.80
2017-08-14T21:57:04.326Z,76.70
2017-08-14T21:59:30.500Z,76.90
2017-08-14T22:01:56.724Z,77.10
2017-08-14T22:04:22.950Z,77.30
2017-08-14T22:06:49.129Z,77.10
2017-08-14T22:09:16.695Z,77.60
2017-08-14T22:11:43.000Z,77.50
2017-08-14T22:14:09.275Z,77.80
2017-08-14T22:16:35.901Z,78.10
2017-08-14T22:19:02.134Z,78.10
2017-08-14T22:21:28.394Z,78.50
2017-08-14T22:23:54.696Z,78.60
2017-08-14T22:26:36.671Z,78.70
2017-08-14T22:29:03.131Z,78.60
2017-08-14T22:31:29.408Z,79.00
2017-08-14T22:33:55.994Z,78.80
2017-08-14T22:36:23.881Z,79.20
2017-08-14T22:38:50.098Z,79.10
2017-08-14T22:41:16.334Z,79.40
2017-08-14T22:43:43.494Z,80.00
2017-08-14T22:46:10.038Z,79.90
2017-08-14T22:48:36.317Z,80.20
2017-08-14T22:51:02.554Z,80.40
2017-08-14T22:53:28.710Z,80.70
2017-08-14T22:55:54.867Z,80.60
2017-08-14T22:58:21.118Z,80.70
2017-08-14T23:00:47.310Z,80.80
2017-08-14T23:03:13.673Z,81.90
2017-08-14T23:05:41.200Z,81.40
2017-08-14T23:08:07.454Z,81.40
2017-08-14T23:10:33.694Z,81.40
2017-08-14T23:13:00.073Z,81.50
2017-08-14T23:15:26.240Z,81.70
2017-08-14T23:17:52.426Z,81.80
2017-08-14T23:20:19.476Z,82.40
2017-08-14T23:22:46.020Z,82.30
2017-08-14T23:25:12.246Z,82.80
2017-08-14T23:27:38.620Z,83.00
2017-08-14T23:30:04.777Z,83.10
2017-08-14T23:32:31.002Z,83.10
2017-08-14T23:34:57.186Z,83.30
2017-08-14T23:37:23.379Z,83.70
2017-08-14T23:39:50.772Z,84.00
2017-08-14T23:42:17.253Z,84.10
2017-08-14T23:44:43.591Z,84.50
2017-08-14T23:47:09.899Z,84.60
2017-08-14T23:49:36.803Z,84.50
2017-08-14T23:52:02.948Z,84.40
2017-08-14T23:54:29.124Z,85.00
2017-08-14T23:56:55.488Z,85.00
2017-08-14T23:59:22.440Z,85.30
